createdAt,value
2018-03-17T00:01:03.077Z,97448.45
2018-03-17T00:03:32.188Z,97443.65
2018-03-17T00:06:01.075Z,97450.50
2018-03-17T00:08:30.421Z,97439.20
2018-03-17T00:10:59.151Z,97439.73
2018-03-17T00:13:27.874Z,97427.86
2018-03-17T00:15:56.559Z,97425.94
2018-03-17T00:18:25.182Z,97424.54
2018-03-17T00:20:53.900Z,97421.19
2018-03-17T00:23:23.308Z,97413.09
2018-03-17T00:25:52.001Z,97401.40
2018-03-17T00:28:20.792Z,97406.68
2018-03-17T00:30:49.459Z,97398.84
2018-03-17T00:33:18.154Z,97394.75
2018-03-17T00:35:47.107Z,97403.95
2018-03-17T00:38:17.158Z,97410.59
2018-03-17T00:40:45.951Z,97410.48
2018-03-17T00:43:14.536Z,97417.06
2018-03-17T00:45:43.189Z,97410.06
2018-03-17T00:48:11.816Z,97413.98
2018-03-17T00:50:40.405Z,97407.51
2018-03-17T00:53:09.036Z,97393.45
2018-03-17T00:55:37.644Z,97394.07
2018-03-17T00:58:06.400Z,97385.77
2018-03-17T01:00:35.170Z,97387.34
2018-03-17T01:03:03.774Z,97381.44
2018-03-17T01:05:32.298Z,97366.91
2018-03-17T01:08:01.051Z,97358.72
2018-03-17T01:10:30.023Z,97358.92
2018-03-17T01:12:59.352Z,97347.86
2018-03-17T01:15:28.809Z,97346.97
2018-03-17T01:17:57.497Z,97340.17
2018-03-17T01:20:26.073Z,97333.70
2018-03-17T01:22:55.487Z,97327.39
2018-03-17T01:25:24.172Z,97321.70
2018-03-17T01:27:52.814Z,97302.75
2018-03-17T01:30:21.391Z,97295.80
2018-03-17T01:32:49.999Z,97290.23
2018-03-17T01:35:18.586Z,97287.63
2018-03-17T01:37:47.239Z,97281.25
2018-03-17T01:40:17.040Z,97276.12
2018-03-17T01:42:45.950Z,97261.62
2018-03-17T01:45:15.065Z,97261.83
2018-03-17T01:47:43.698Z,97258.28
2018-03-17T01:50:12.382Z,97256.30
2018-03-17T01:52:41.014Z,97259.80
2018-03-17T01:55:09.602Z,97259.11
2018-03-17T01:57:39.088Z,97246.58
2018-03-17T02:00:07.694Z,97227.86
2018-03-17T02:02:36.524Z,97224.56
2018-03-17T02:05:05.324Z,97225.72
2018-03-17T02:07:33.905Z,97213.60
2018-03-17T02:10:03.249Z,97210.47
2018-03-17T02:12:32.001Z,97204.84
2018-03-17T02:15:01.054Z,97198.88
2018-03-17T02:17:30.738Z,97198.11
2018-03-17T02:19:59.452Z,97195.86
2018-03-17T02:22:28.137Z,97185.42
2018-03-17T02:24:56.793Z,97178.28
2018-03-17T02:27:26.231Z,97160.23
2018-03-17T02:29:54.883Z,97150.74
2018-03-17T02:32:23.493Z,97143.07
2018-03-17T02:34:52.146Z,97138.89
2018-03-17T02:37:20.777Z,97144.17
2018-03-17T02:39:49.428Z,97142.45
2018-03-17T02:42:18.036Z,97140.89
2018-03-17T02:44:46.610Z,97133.00
2018-03-17T02:47:15.938Z,97131.07
2018-03-17T02:49:45.141Z,97127.31
2018-03-17T02:52:13.851Z,97125.23
2018-03-17T02:54:42.394Z,97117.89
2018-03-17T02:57:11.715Z,97113.98
2018-03-17T02:59:40.382Z,97109.80
2018-03-17T03:02:08.966Z,97108.50
2018-03-17T03:04:37.551Z,97111.61
2018-03-17T03:07:06.947Z,97104.11
2018-03-17T03:09:35.568Z,97093.61
2018-03-17T03:12:05.056Z,97086.52
2018-03-17T03:14:33.678Z,97080.73
2018-03-17T03:17:02.455Z,97076.70
2018-03-17T03:19:31.921Z,97076.30
2018-03-17T03:22:00.712Z,97076.70
2018-03-17T03:24:29.205Z,97071.81
2018-03-17T03:26:57.962Z,97073.73
2018-03-17T03:29:27.346Z,97072.36
2018-03-17T03:31:56.003Z,97078.88
2018-03-17T03:34:24.618Z,97078.20
2018-03-17T03:36:53.496Z,97087.46
2018-03-17T03:39:22.792Z,97084.85
2018-03-17T03:41:51.440Z,97085.27
2018-03-17T03:44:20.880Z,97084.73
2018-03-17T03:46:49.418Z,97076.91
2018-03-17T03:49:18.409Z,97076.08
2018-03-17T03:51:47.720Z,97069.97
2018-03-17T03:54:16.465Z,97066.95
2018-03-17T03:56:45.084Z,97070.92
2018-03-17T03:59:13.615Z,97054.53
2018-03-17T04:01:43.104Z,97054.95
2018-03-17T04:04:11.797Z,97046.14
2018-03-17T04:06:40.387Z,97046.40
2018-03-17T04:09:08.992Z,97046.55
2018-03-17T04:11:37.552Z,97036.59
2018-03-17T04:14:06.948Z,97036.98
2018-03-17T04:16:35.547Z,97024.53
2018-03-17T04:19:04.090Z,97033.20
2018-03-17T04:21:33.811Z,97031.94
2018-03-17T04:24:02.981Z,97032.63
2018-03-17T04:26:31.897Z,97038.00
2018-03-17T04:29:00.583Z,97039.93
2018-03-17T04:31:29.294Z,97036.44
2018-03-17T04:33:58.010Z,97044.05
2018-03-17T04:36:26.633Z,97045.98
2018-03-17T04:38:55.329Z,97047.41
2018-03-17T04:41:23.901Z,97050.11
2018-03-17T04:43:53.276Z,97038.02
2018-03-17T04:46:22.004Z,97028.47
2018-03-17T04:48:50.636Z,97031.56
2018-03-17T04:51:20.152Z,97033.28
2018-03-17T04:53:50.415Z,97019.61
2018-03-17T04:56:19.648Z,97018.51
2018-03-17T04:58:48.304Z,97003.69
2018-03-17T05:01:16.951Z,97006.56
2018-03-17T05:03:45.503Z,97001.14
2018-03-17T05:06:14.096Z,97002.03
2018-03-17T05:08:42.868Z,97006.04
2018-03-17T05:11:11.555Z,97006.36
2018-03-17T05:13:40.964Z,96999.02
2018-03-17T05:16:09.654Z,96988.20
2018-03-17T05:18:38.247Z,96980.86
2018-03-17T05:21:06.949Z,96980.22
2018-03-17T05:23:35.655Z,96976.95
2018-03-17T05:26:04.455Z,96973.73
2018-03-17T05:28:33.684Z,96974.20
2018-03-17T05:31:02.552Z,96974.62
2018-03-17T05:33:31.416Z,96967.42
2018-03-17T05:35:59.925Z,96956.48
2018-03-17T05:38:29.467Z,96965.25
2018-03-17T05:40:58.213Z,96957.17
2018-03-17T05:43:26.804Z,96953.14
2018-03-17T05:45:56.196Z,96947.24
2018-03-17T05:48:24.781Z,96952.93
2018-03-17T05:50:53.405Z,96954.87
2018-03-17T05:53:22.048Z,96951.11
2018-03-17T05:55:51.413Z,96951.58
2018-03-17T05:58:21.039Z,96949.66
2018-03-17T06:00:50.147Z,96943.42
2018-03-17T06:03:19.016Z,96942.24
2018-03-17T06:05:48.518Z,96945.31
2018-03-17T06:08:17.134Z,96936.19
2018-03-17T06:10:46.620Z,96926.82
2018-03-17T06:13:15.255Z,96930.70
2018-03-17T06:15:43.845Z,96924.02
2018-03-17T06:18:12.590Z,96918.36
2018-03-17T06:20:42.078Z,96905.68
2018-03-17T06:23:10.701Z,96904.61
2018-03-17T06:25:39.329Z,96898.06
2018-03-17T06:28:08.136Z,96899.87
2018-03-17T06:30:38.226Z,96893.86
2018-03-17T06:33:07.052Z,96903.30
2018-03-17T06:35:35.736Z,96895.48
2018-03-17T06:38:04.423Z,96896.95
2018-03-17T06:40:33.085Z,96887.21
2018-03-17T06:43:02.490Z,96888.48
2018-03-17T06:45:31.131Z,96889.25
2018-03-17T06:47:59.771Z,96889.69
2018-03-17T06:50:28.399Z,96884.19
2018-03-17T06:52:58.042Z,96887.78
2018-03-17T06:55:26.764Z,96894.55
2018-03-17T06:57:55.608Z,96889.44
2018-03-17T07:00:25.477Z,96884.72
2018-03-17T07:02:55.935Z,96895.25
2018-03-17T07:05:25.406Z,96888.75
2018-03-17T07:07:54.853Z,96876.72
2018-03-17T07:10:23.619Z,96875.87
2018-03-17T07:12:52.270Z,96881.14
2018-03-17T07:15:20.872Z,96881.52
2018-03-17T07:17:49.496Z,96880.12
2018-03-17T07:20:18.333Z,96884.22
2018-03-17T07:22:46.945Z,96878.75
2018-03-17T07:25:15.699Z,96878.78
2018-03-17T07:27:44.387Z,96880.41
2018-03-17T07:30:13.850Z,96887.27
2018-03-17T07:32:43.086Z,96885.33
2018-03-17T07:35:12.798Z,96892.95
2018-03-17T07:37:41.496Z,96888.81
2018-03-17T07:40:10.337Z,96871.50
2018-03-17T07:42:38.939Z,96869.98
2018-03-17T07:45:07.547Z,96864.34
2018-03-17T07:47:36.148Z,96866.20
2018-03-17T07:50:04.868Z,96870.41
2018-03-17T07:52:33.443Z,96860.97
2018-03-17T07:55:02.160Z,96856.25
2018-03-17T07:57:30.722Z,96857.44
2018-03-17T08:00:00.318Z,96852.07
2018-03-17T08:02:30.885Z,96856.92
2018-03-17T08:05:00.185Z,96865.67
2018-03-17T08:07:29.225Z,96869.94
2018-03-17T08:09:58.631Z,96858.30
2018-03-17T08:12:27.329Z,96860.16
2018-03-17T08:14:56.390Z,96862.88
2018-03-17T08:17:25.124Z,96864.36
2018-03-17T08:19:53.968Z,96852.83
2018-03-17T08:22:24.368Z,96851.11
2018-03-17T08:24:54.839Z,96857.50
2018-03-17T08:27:23.537Z,96859.02
2018-03-17T08:29:52.385Z,96868.28
2018-03-17T08:32:21.960Z,96874.41
2018-03-17T08:34:51.654Z,96861.81
2018-03-17T08:37:21.002Z,96857.53
2018-03-17T08:39:49.733Z,96845.28
2018-03-17T08:42:18.356Z,96827.84
2018-03-17T08:44:47.051Z,96842.39
2018-03-17T08:47:15.781Z,96835.84
2018-03-17T08:49:44.455Z,96839.08
2018-03-17T08:52:13.160Z,96839.78
2018-03-17T08:54:41.828Z,96840.36
2018-03-17T08:57:11.899Z,96838.53
2018-03-17T08:59:40.490Z,96833.55
2018-03-17T09:02:09.457Z,96837.06
2018-03-17T09:04:39.482Z,96833.30
2018-03-17T09:07:08.204Z,96826.39
2018-03-17T09:09:36.875Z,96832.08
2018-03-17T09:12:05.447Z,96825.44
2018-03-17T09:14:34.907Z,96822.91
2018-03-17T09:17:03.569Z,96827.45
2018-03-17T09:19:32.915Z,96829.05
2018-03-17T09:22:02.366Z,96837.47
2018-03-17T09:24:31.525Z,96827.98
2018-03-17T09:27:00.904Z,96831.19
2018-03-17T09:29:29.543Z,96834.48
2018-03-17T09:31:58.634Z,96840.66
2018-03-17T09:34:27.578Z,96842.92
2018-03-17T09:36:58.963Z,96850.86
2018-03-17T09:39:27.615Z,96839.52
2018-03-17T09:41:56.307Z,96832.36
2018-03-17T09:44:26.328Z,96818.80
2018-03-17T09:46:55.720Z,96819.99
2018-03-17T09:49:24.425Z,96819.77
2018-03-17T09:51:54.110Z,96814.89
2018-03-17T09:54:22.834Z,96819.41
2018-03-17T09:56:51.523Z,96818.47
2018-03-17T09:59:20.150Z,96820.98
2018-03-17T10:01:49.478Z,96816.14
2018-03-17T10:04:18.802Z,96809.06
2018-03-17T10:06:48.395Z,96815.09
2018-03-17T10:09:17.093Z,96819.12
2018-03-17T10:11:45.771Z,96812.66
2018-03-17T10:14:14.712Z,96804.70
2018-03-17T10:16:43.819Z,96804.08
2018-03-17T10:19:13.303Z,96809.02
2018-03-17T10:21:42.104Z,96806.00
2018-03-17T10:24:10.838Z,96818.67
2018-03-17T10:26:39.549Z,96817.41
2018-03-17T10:29:08.199Z,96820.73
2018-03-17T10:31:36.990Z,96813.80
2018-03-17T10:34:07.096Z,96805.55
2018-03-17T10:36:36.132Z,96805.72
2018-03-17T10:39:04.970Z,96805.06
2018-03-17T10:41:33.578Z,96805.28
2018-03-17T10:44:02.287Z,96793.73
2018-03-17T10:46:31.352Z,96801.11
2018-03-17T10:49:00.074Z,96799.74
2018-03-17T10:51:28.854Z,96798.33
2018-03-17T10:53:57.520Z,96799.58
2018-03-17T10:56:26.306Z,96801.94
2018-03-17T10:58:55.863Z,96804.02
2018-03-17T11:01:26.872Z,96790.83
2018-03-17T11:03:56.226Z,96789.45
2018-03-17T11:06:26.234Z,96786.58
2018-03-17T11:08:54.912Z,96788.81
2018-03-17T11:11:23.694Z,96785.72
2018-03-17T11:13:52.794Z,96781.56
2018-03-17T11:16:22.333Z,96784.80
2018-03-17T11:18:51.173Z,96775.64
2018-03-17T11:21:19.865Z,96772.17
2018-03-17T11:23:49.080Z,96766.57
2018-03-17T11:26:17.833Z,96764.77
2018-03-17T11:28:46.532Z,96766.69
2018-03-17T11:31:15.264Z,96762.50
2018-03-17T11:33:44.347Z,96755.05
2018-03-17T11:36:13.659Z,96754.67
2018-03-17T11:38:42.581Z,96752.05
2018-03-17T11:41:11.385Z,96744.05
2018-03-17T11:43:40.094Z,96746.74
2018-03-17T11:46:09.213Z,96745.85
2018-03-17T11:48:37.911Z,96748.08
2018-03-17T11:51:06.779Z,96741.15
2018-03-17T11:53:36.390Z,96737.25
2018-03-17T11:56:05.262Z,96734.83
2018-03-17T11:58:34.139Z,96731.00
2018-03-17T12:01:03.819Z,96726.69
2018-03-17T12:03:32.732Z,96722.81
2018-03-17T12:06:02.090Z,96719.20
2018-03-17T12:08:33.332Z,96719.42
2018-03-17T12:11:02.065Z,96718.74
2018-03-17T12:13:31.599Z,96716.84
2018-03-17T12:16:01.121Z,96721.36
2018-03-17T12:18:29.766Z,96719.52
2018-03-17T12:20:58.422Z,96714.63
2018-03-17T12:23:27.224Z,96709.25
2018-03-17T12:25:55.928Z,96704.14
2018-03-17T12:28:24.647Z,96704.69
2018-03-17T12:30:53.838Z,96699.98
2018-03-17T12:33:22.625Z,96694.97
2018-03-17T12:35:51.948Z,96698.64
2018-03-17T12:38:21.497Z,96695.72
2018-03-17T12:40:50.204Z,96688.17
2018-03-17T12:43:18.831Z,96685.77
2018-03-17T12:45:47.433Z,96678.72
2018-03-17T12:48:16.122Z,96679.41
2018-03-17T12:50:44.821Z,96678.77
2018-03-17T12:53:13.603Z,96683.11
2018-03-17T12:55:42.578Z,96677.42
2018-03-17T12:58:12.267Z,96684.20
2018-03-17T13:00:41.119Z,96681.48
2018-03-17T13:03:10.008Z,96683.15
2018-03-17T13:05:39.100Z,96685.92
2018-03-17T13:08:09.139Z,96693.03
2018-03-17T13:10:38.363Z,96688.05
2018-03-17T13:13:07.129Z,96690.58
2018-03-17T13:15:36.857Z,96693.13
2018-03-17T13:18:05.900Z,96690.35
2018-03-17T13:20:34.816Z,96698.52
2018-03-17T13:23:17.440Z,96704.36
2018-03-17T13:25:46.761Z,96696.19
2018-03-17T13:28:29.902Z,96692.78
2018-03-17T13:30:58.822Z,96697.93
2018-03-17T13:33:27.606Z,96683.31
2018-03-17T13:36:15.082Z,96690.98
2018-03-17T13:38:43.771Z,96685.99
2018-03-17T13:41:13.434Z,96689.52
2018-03-17T13:43:42.660Z,96686.63
2018-03-17T13:46:12.343Z,96686.70
2018-03-17T13:48:41.591Z,96677.69
2018-03-17T13:51:11.760Z,96681.72
2018-03-17T13:53:41.405Z,96685.11
2018-03-17T13:56:10.257Z,96675.05
2018-03-17T13:58:40.013Z,96678.37
2018-03-17T14:01:10.976Z,96677.55
2018-03-17T14:03:41.226Z,96681.70
2018-03-17T14:06:10.402Z,96686.22
2018-03-17T14:08:40.120Z,96691.95
2018-03-17T14:11:09.184Z,96690.17
2018-03-17T14:13:39.429Z,96680.03
2018-03-17T14:16:09.360Z,96679.84
2018-03-17T14:18:38.761Z,96685.89
2018-03-17T14:21:08.078Z,96674.95
2018-03-17T14:23:36.977Z,96688.36
2018-03-17T14:26:06.459Z,96690.49
2018-03-17T14:28:35.736Z,96691.77
2018-03-17T14:31:05.548Z,96694.28
2018-03-17T14:33:34.414Z,96691.27
2018-03-17T14:36:03.332Z,96685.06
2018-03-17T14:38:34.203Z,96684.33
2018-03-17T14:41:04.070Z,96690.08
2018-03-17T14:43:32.736Z,96690.48
2018-03-17T14:46:01.846Z,96687.80
2018-03-17T14:48:30.691Z,96686.69
2018-03-17T14:51:00.033Z,96686.91
2018-03-17T14:53:28.730Z,96688.74
2018-03-17T14:55:57.706Z,96686.37
2018-03-17T14:58:27.458Z,96688.38
2018-03-17T15:00:56.444Z,96685.64
2018-03-17T15:03:25.126Z,96688.00
2018-03-17T15:05:54.118Z,96695.41
2018-03-17T15:08:22.859Z,96690.52
2018-03-17T15:10:52.010Z,96693.27
2018-03-17T15:13:21.305Z,96693.13
2018-03-17T15:15:50.215Z,96689.20
2018-03-17T15:18:20.135Z,96685.78
2018-03-17T15:20:49.588Z,96701.06
2018-03-17T15:23:18.396Z,96696.08
2018-03-17T15:25:47.307Z,96699.48
2018-03-17T15:28:16.644Z,96707.22
2018-03-17T15:30:46.867Z,96698.42
2018-03-17T15:33:15.841Z,96707.69
2018-03-17T15:35:45.489Z,96713.80
2018-03-17T15:38:15.128Z,96710.98
2018-03-17T15:40:45.363Z,96712.58
2018-03-17T15:43:14.859Z,96716.13
2018-03-17T15:45:44.753Z,96712.64
2018-03-17T15:48:13.544Z,96717.31
2018-03-17T15:50:42.351Z,96721.70
2018-03-17T15:53:10.948Z,96726.13
2018-03-17T15:55:40.397Z,96729.43
2018-03-17T15:58:09.610Z,96735.12
2018-03-17T16:00:38.533Z,96736.19
2018-03-17T16:03:07.158Z,96745.16
2018-03-17T16:05:36.052Z,96749.15
2018-03-17T16:08:04.834Z,96750.73
2018-03-17T16:10:34.317Z,96758.05
2018-03-17T16:13:03.101Z,96758.16
2018-03-17T16:15:31.839Z,96760.52
2018-03-17T16:18:00.552Z,96762.19
2018-03-17T16:20:29.257Z,96763.72
2018-03-17T16:22:58.729Z,96761.29
2018-03-17T16:25:27.363Z,96765.96
2018-03-17T16:27:56.304Z,96765.31
2018-03-17T16:30:26.204Z,96763.94
2018-03-17T16:32:55.539Z,96771.05
2018-03-17T16:35:24.653Z,96771.59
2018-03-17T16:37:53.875Z,96773.31
2018-03-17T16:40:22.703Z,96772.91
2018-03-17T16:42:51.654Z,96782.83
2018-03-17T16:45:21.403Z,96789.03
2018-03-17T16:47:50.206Z,96790.55
2018-03-17T16:50:18.847Z,96792.47
2018-03-17T16:52:47.624Z,96799.85
2018-03-17T16:55:16.358Z,96808.52
2018-03-17T16:57:45.213Z,96806.34
2018-03-17T17:00:15.277Z,96801.61
2018-03-17T17:02:44.728Z,96801.09
2018-03-17T17:05:13.491Z,96808.63
2018-03-17T17:07:42.307Z,96808.05
2018-03-17T17:10:11.203Z,96810.05
2018-03-17T17:12:40.249Z,96813.88
2018-03-17T17:15:08.906Z,96815.02
2018-03-17T17:17:37.778Z,96814.88
2018-03-17T17:20:06.761Z,96817.24
2018-03-17T17:22:36.461Z,96824.99
2018-03-17T17:25:06.261Z,96826.36
2018-03-17T17:27:35.076Z,96829.33
2018-03-17T17:30:04.794Z,96836.16
2018-03-17T17:32:34.350Z,96842.47
2018-03-17T17:35:03.163Z,96840.58
2018-03-17T17:37:31.873Z,96838.52
2018-03-17T17:40:00.780Z,96847.69
2018-03-17T17:42:29.485Z,96847.55
2018-03-17T17:44:58.540Z,96854.78
2018-03-17T17:47:27.512Z,96867.39
2018-03-17T17:49:56.182Z,96867.90
2018-03-17T17:52:24.979Z,96875.89
2018-03-17T17:54:53.706Z,96878.88
2018-03-17T17:57:22.479Z,96884.16
2018-03-17T17:59:52.260Z,96887.91
2018-03-17T18:02:21.606Z,96892.72
2018-03-17T18:04:51.754Z,96893.42
2018-03-17T18:07:20.822Z,96900.89
2018-03-17T18:09:49.691Z,96898.52
2018-03-17T18:12:18.568Z,96902.89
2018-03-17T18:14:48.043Z,96907.50
2018-03-17T18:17:17.847Z,96908.25
2018-03-17T18:19:46.959Z,96906.36
2018-03-17T18:22:16.074Z,96907.33
2018-03-17T18:24:45.723Z,96913.52
2018-03-17T18:27:14.836Z,96917.98
2018-03-17T18:29:44.163Z,96918.17
2018-03-17T18:32:14.674Z,96932.55
2018-03-17T18:34:44.174Z,96928.05
2018-03-17T18:37:13.712Z,96933.05
2018-03-17T18:39:42.601Z,96935.22
2018-03-17T18:42:11.533Z,96943.65
2018-03-17T18:44:40.368Z,96943.16
2018-03-17T18:47:09.299Z,96944.42
2018-03-17T18:49:39.092Z,96955.69
2018-03-17T18:52:07.895Z,96953.71
2018-03-17T18:54:36.738Z,96961.98
2018-03-17T18:57:05.552Z,96959.59
2018-03-17T18:59:34.664Z,96952.67
2018-03-17T19:02:03.939Z,96953.23
2018-03-17T19:04:33.420Z,96956.39
2018-03-17T19:07:02.377Z,96956.88
2018-03-17T19:09:31.121Z,96965.02
2018-03-17T19:11:59.914Z,96970.20
2018-03-17T19:14:28.592Z,96971.70
2018-03-17T19:16:58.354Z,96969.38
2018-03-17T19:19:27.752Z,96968.39
2018-03-17T19:21:57.842Z,96970.42
2018-03-17T19:24:26.562Z,96971.25
2018-03-17T19:26:56.436Z,96969.19
2018-03-17T19:29:25.249Z,96975.67
2018-03-17T19:31:54.437Z,96982.05
2018-03-17T19:34:23.570Z,96983.46
2018-03-17T19:36:52.329Z,96985.03
2018-03-17T19:39:22.166Z,96998.00
2018-03-17T19:41:51.153Z,97003.05
2018-03-17T19:44:20.768Z,97010.38
2018-03-17T19:46:50.418Z,97014.39
2018-03-17T19:49:19.248Z,97017.14
2018-03-17T19:51:48.367Z,97015.40
2018-03-17T19:54:17.281Z,97030.45
2018-03-17T19:56:46.301Z,97025.59
2018-03-17T19:59:15.291Z,97027.43
2018-03-17T20:01:45.767Z,97032.11
2018-03-17T20:04:18.440Z,97045.22
2018-03-17T20:06:47.355Z,97037.63
2018-03-17T20:09:16.817Z,97042.80
2018-03-17T20:11:45.597Z,97041.43
2018-03-17T20:14:14.394Z,97047.48
2018-03-17T20:16:43.615Z,97046.48
2018-03-17T20:19:12.661Z,97046.67
2018-03-17T20:21:41.489Z,97041.85
2018-03-17T20:24:10.543Z,97044.14
2018-03-17T20:26:39.282Z,97047.65
2018-03-17T20:29:09.699Z,97042.52
2018-03-17T20:31:39.810Z,97049.42
2018-03-17T20:34:09.883Z,97048.00
2018-03-17T20:36:38.802Z,97046.75
2018-03-17T20:39:08.675Z,97048.92
2018-03-17T20:41:38.236Z,97046.45
2018-03-17T20:44:07.459Z,97044.53
2018-03-17T20:50:12.210Z,97046.70
2018-03-17T20:52:41.810Z,97047.52
2018-03-17T20:55:10.564Z,97051.99
2018-03-17T20:57:40.174Z,97054.19
2018-03-17T21:00:10.190Z,97063.26
2018-03-17T21:02:40.286Z,97060.25
2018-03-17T21:05:09.280Z,97059.77
2018-03-17T21:07:39.104Z,97075.37
2018-03-17T21:10:08.207Z,97074.38
2018-03-17T21:12:36.912Z,97078.00
2018-03-17T21:15:05.762Z,97064.92
2018-03-17T21:17:35.160Z,97074.07
2018-03-17T21:20:03.895Z,97073.83
2018-03-17T21:22:33.425Z,97077.78
2018-03-17T21:25:02.228Z,97084.69
2018-03-17T21:27:32.175Z,97092.35
2018-03-17T21:30:01.371Z,97096.47
2018-03-17T21:32:32.112Z,97098.69
2018-03-17T21:35:00.956Z,97098.92
2018-03-17T21:37:29.968Z,97094.69
2018-03-17T21:39:59.442Z,97090.33
2018-03-17T21:42:28.313Z,97080.92
2018-03-17T21:44:57.084Z,97073.44
2018-03-17T21:47:25.831Z,97071.97
2018-03-17T21:49:54.555Z,97074.44
2018-03-17T21:52:23.365Z,97078.33
2018-03-17T21:54:52.097Z,97075.83
2018-03-17T21:57:20.778Z,97073.83
2018-03-17T21:59:49.499Z,97075.18
2018-03-17T22:02:18.777Z,97078.41
2018-03-17T22:04:49.028Z,97073.41
2018-03-17T22:07:17.715Z,97083.83
2018-03-17T22:09:46.383Z,97087.70
2018-03-17T22:12:15.849Z,97086.28
2018-03-17T22:14:45.214Z,97084.22
2018-03-17T22:17:15.665Z,97088.77
2018-03-17T22:19:46.584Z,97089.40
2018-03-17T22:22:17.586Z,97087.03
2018-03-17T22:24:46.324Z,97076.81
2018-03-17T22:27:15.299Z,97069.84
2018-03-17T22:29:44.600Z,97071.91
2018-03-17T22:32:13.583Z,97074.92
2018-03-17T22:34:42.172Z,97071.83
2018-03-17T22:37:10.866Z,97071.36
2018-03-17T22:39:39.690Z,97065.94
2018-03-17T22:42:08.432Z,97057.58
2018-03-17T22:44:37.943Z,97068.05
2018-03-17T22:47:06.645Z,97063.88
2018-03-17T22:49:35.673Z,97059.37
2018-03-17T22:52:04.405Z,97062.87
2018-03-17T22:54:33.030Z,97056.54
2018-03-17T22:57:01.905Z,97044.41
2018-03-17T22:59:30.993Z,97048.14
2018-03-17T23:02:00.177Z,97041.69
2018-03-17T23:04:29.140Z,97025.45
2018-03-17T23:06:57.773Z,97029.04
2018-03-17T23:09:26.482Z,97024.21
2018-03-17T23:11:55.075Z,97027.08
2018-03-17T23:14:24.465Z,97031.94
2018-03-17T23:16:53.676Z,97030.65
2018-03-17T23:19:22.556Z,97030.28
2018-03-17T23:21:51.241Z,97031.27
2018-03-17T23:24:19.972Z,97035.33
2018-03-17T23:26:48.608Z,97033.39
2018-03-17T23:29:18.205Z,97030.92
2018-03-17T23:31:47.153Z,97029.84
2018-03-17T23:34:17.298Z,97030.47
2018-03-17T23:36:47.092Z,97032.66
2018-03-17T23:39:16.111Z,97029.09
2018-03-17T23:41:44.860Z,97037.33
2018-03-17T23:44:13.687Z,97038.80
2018-03-17T23:46:43.169Z,97040.56
2018-03-17T23:49:12.039Z,97040.95
2018-03-17T23:51:40.839Z,97043.80
2018-03-17T23:54:10.301Z,97051.36
2018-03-17T23:56:39.031Z,97047.86
2018-03-17T23:59:07.842Z,97052.30
